createdAt,value
2019-01-15T22:02:11.829Z,29.75
2019-01-15T22:05:00.051Z,26.40
2019-01-15T22:07:54.028Z,26.90
2019-01-15T22:11:00.399Z,31.20
2019-01-15T22:13:51.243Z,28.42
2019-01-15T22:16:39.249Z,28.30
2019-01-15T22:19:27.344Z,24.63
2019-01-15T22:22:15.864Z,24.67
2019-01-15T22:25:02.646Z,29.12
2019-01-15T22:27:50.631Z,29.27
2019-01-15T22:30:38.652Z,29.92
2019-01-15T22:33:18.051Z,32.20
2019-01-15T22:36:04.956Z,34.20
2019-01-15T22:38:45.844Z,30.50
2019-01-15T22:41:36.793Z,31.52
2019-01-15T22:44:28.069Z,34.38
2019-01-15T22:47:22.140Z,33.70
2019-01-15T22:50:09.064Z,33.92
2019-01-15T22:53:03.120Z,36.75
2019-01-15T22:56:09.444Z,36.48
2019-01-15T22:58:48.115Z,39.10
2019-01-15T23:01:32.175Z,38.55
2019-01-15T23:04:22.904Z,34.27
2019-01-15T23:07:14.308Z,32.80
2019-01-15T23:10:03.556Z,36.00
2019-01-15T23:12:42.192Z,35.63
2019-01-15T23:15:28.732Z,35.40
2019-01-15T23:18:18.984Z,48.35
2019-01-15T23:21:16.087Z,35.25
2019-01-15T23:24:04.113Z,40.73
2019-01-15T23:26:46.872Z,37.53
2019-01-15T23:29:34.904Z,42.62
2019-01-15T23:32:18.223Z,39.35
2019-01-15T23:35:09.063Z,40.35
2019-01-15T23:37:53.384Z,41.35
2019-01-15T23:40:50.523Z,44.27
2019-01-15T23:43:37.053Z,38.92
2019-01-15T23:46:34.324Z,40.70
2019-01-15T23:49:31.500Z,34.95
2019-01-15T23:52:25.700Z,36.38
2019-01-15T23:55:16.342Z,34.23
2019-01-15T23:58:07.588Z,34.98
